createdAt,value
2018-09-17T00:00:53.742Z,15.70
2018-09-17T00:03:21.937Z,15.70
2018-09-17T00:05:56.790Z,15.60
2018-09-17T00:08:25.003Z,15.60
2018-09-17T00:10:53.207Z,15.70
2018-09-17T00:13:21.425Z,15.60
2018-09-17T00:15:49.604Z,15.60
2018-09-17T00:18:17.787Z,15.60
2018-09-17T00:20:45.968Z,15.50
2018-09-17T00:23:14.183Z,15.50
2018-09-17T00:25:42.378Z,15.50
2018-09-17T00:28:10.608Z,15.50
2018-09-17T00:30:38.817Z,15.40
2018-09-17T00:33:07.019Z,15.40
2018-09-17T00:35:35.236Z,15.40
2018-09-17T00:38:03.465Z,15.40
2018-09-17T00:40:31.691Z,15.40
2018-09-17T00:42:59.885Z,15.30
2018-09-17T00:45:28.091Z,15.20
2018-09-17T00:47:56.274Z,15.20
2018-09-17T00:50:24.479Z,15.20
2018-09-17T00:52:52.675Z,15.20
2018-09-17T00:55:20.879Z,15.10
2018-09-17T00:57:49.123Z,15.20
2018-09-17T01:00:17.627Z,15.20
2018-09-17T01:02:45.818Z,15.20
2018-09-17T01:05:14.284Z,15.10
2018-09-17T01:07:42.464Z,15.10
2018-09-17T01:10:10.642Z,15.10
2018-09-17T01:12:38.823Z,15.00
2018-09-17T01:15:07.020Z,14.80
2018-09-17T01:17:35.216Z,14.70
2018-09-17T01:20:03.388Z,14.80
2018-09-17T01:22:31.600Z,14.60
2018-09-17T01:24:59.800Z,14.40
2018-09-17T01:27:27.989Z,14.40
2018-09-17T01:29:56.181Z,14.40
2018-09-17T01:32:24.428Z,14.30
2018-09-17T01:34:52.646Z,14.30
2018-09-17T01:37:20.842Z,14.20
2018-09-17T01:39:49.053Z,14.10
2018-09-17T01:42:17.258Z,14.00
2018-09-17T01:44:45.443Z,14.10
2018-09-17T01:47:13.613Z,14.20
2018-09-17T01:49:41.815Z,14.50
2018-09-17T01:52:10.022Z,14.50
2018-09-17T01:54:38.235Z,14.60
2018-09-17T01:57:06.454Z,14.60
2018-09-17T01:59:34.647Z,14.50
2018-09-17T02:02:02.830Z,14.60
2018-09-17T02:04:31.052Z,14.60
2018-09-17T02:06:59.245Z,14.60
2018-09-17T02:09:27.422Z,14.50
2018-09-17T02:11:55.622Z,14.50
2018-09-17T02:14:23.814Z,14.50
2018-09-17T02:16:52.002Z,14.50
2018-09-17T02:19:20.190Z,14.50
2018-09-17T02:21:48.411Z,14.50
2018-09-17T02:24:16.621Z,14.40
2018-09-17T02:26:44.911Z,14.20
2018-09-17T02:29:13.181Z,14.00
2018-09-17T02:31:41.374Z,14.00
2018-09-17T02:34:09.555Z,13.80
2018-09-17T02:36:37.778Z,13.70
2018-09-17T02:39:06.968Z,13.60
2018-09-17T02:41:35.200Z,13.60
2018-09-17T02:44:03.383Z,13.60
2018-09-17T02:46:31.669Z,13.60
2018-09-17T02:48:59.871Z,13.40
2018-09-17T02:51:28.074Z,13.40
2018-09-17T02:53:56.277Z,13.30
2018-09-17T02:56:24.474Z,13.40
2018-09-17T02:58:52.844Z,13.50
2018-09-17T03:01:21.111Z,13.60
2018-09-17T03:03:49.704Z,13.70
2018-09-17T03:06:17.963Z,13.80
2018-09-17T03:08:46.270Z,13.80
2018-09-17T03:11:14.509Z,13.80
2018-09-17T03:13:42.689Z,13.80
2018-09-17T03:16:10.939Z,13.80
2018-09-17T03:18:49.411Z,13.80
2018-09-17T03:21:17.597Z,13.80
2018-09-17T03:23:45.798Z,13.80
2018-09-17T03:26:13.982Z,13.80
2018-09-17T03:28:42.162Z,13.70
2018-09-17T03:31:10.443Z,13.70
2018-09-17T03:33:38.630Z,13.80
2018-09-17T03:36:06.861Z,13.70
2018-09-17T03:38:44.804Z,13.70
2018-09-17T03:41:13.682Z,13.60
2018-09-17T03:43:45.440Z,13.40
2018-09-17T03:46:13.717Z,13.40
2018-09-17T03:48:42.107Z,13.20
2018-09-17T03:51:10.891Z,13.10
2018-09-17T03:53:39.300Z,13.00
2018-09-17T03:56:07.481Z,12.80
2018-09-17T03:58:35.700Z,12.80
2018-09-17T04:01:04.349Z,12.70
2018-09-17T04:03:32.614Z,12.70
2018-09-17T04:06:00.825Z,12.70
2018-09-17T04:08:30.301Z,12.80
2018-09-17T04:10:58.544Z,12.70
2018-09-17T04:13:26.768Z,12.70
2018-09-17T04:15:54.961Z,12.60
2018-09-17T04:18:23.158Z,12.60
2018-09-17T04:20:51.363Z,12.80
2018-09-17T04:23:36.333Z,12.90
2018-09-17T04:26:06.695Z,13.00
2018-09-17T04:28:35.543Z,13.10
2018-09-17T04:31:03.804Z,13.00
2018-09-17T04:33:35.891Z,12.90
2018-09-17T04:36:04.078Z,12.90
2018-09-17T04:38:32.315Z,12.90
2018-09-17T04:41:00.522Z,13.00
2018-09-17T04:43:28.726Z,12.90
2018-09-17T04:45:56.908Z,12.80
2018-09-17T04:48:25.090Z,12.70
2018-09-17T04:50:53.286Z,12.70
2018-09-17T04:53:21.513Z,12.70
2018-09-17T04:55:49.788Z,12.60
2018-09-17T04:58:17.973Z,12.80
2018-09-17T05:00:46.170Z,12.80
2018-09-17T05:03:14.428Z,12.90
2018-09-17T05:05:42.620Z,13.00
2018-09-17T05:08:10.823Z,12.80
2018-09-17T05:10:39.019Z,12.90
2018-09-17T05:13:07.301Z,13.00
2018-09-17T05:15:35.432Z,13.00
2018-09-17T05:18:03.627Z,13.00
2018-09-17T05:20:32.156Z,13.10
2018-09-17T05:23:00.319Z,13.00
2018-09-17T05:25:28.529Z,13.10
2018-09-17T05:27:56.757Z,13.10
2018-09-17T05:30:24.974Z,13.10
2018-09-17T05:32:53.157Z,13.00
2018-09-17T05:35:21.352Z,13.10
2018-09-17T05:37:49.549Z,13.10
2018-09-17T05:40:17.881Z,13.10
2018-09-17T05:42:46.093Z,13.00
2018-09-17T05:45:14.397Z,13.00
2018-09-17T05:47:42.595Z,13.00
2018-09-17T05:50:10.801Z,13.00
2018-09-17T05:52:38.984Z,13.10
2018-09-17T05:55:07.213Z,13.10
2018-09-17T05:57:35.379Z,13.20
2018-09-17T06:00:03.656Z,13.20
2018-09-17T06:02:31.865Z,13.30
2018-09-17T06:05:00.100Z,13.40
2018-09-17T06:07:28.294Z,13.40
2018-09-17T06:09:56.489Z,13.40
2018-09-17T06:12:24.690Z,13.40
2018-09-17T06:14:52.862Z,13.40
2018-09-17T06:17:21.121Z,13.40
2018-09-17T06:19:49.321Z,13.50
2018-09-17T06:22:17.562Z,13.50
2018-09-17T06:24:45.788Z,13.60
2018-09-17T06:27:13.984Z,13.70
2018-09-17T06:29:42.207Z,13.70
2018-09-17T06:32:10.419Z,13.80
2018-09-17T06:34:38.615Z,13.80
2018-09-17T06:37:06.808Z,13.80
2018-09-17T06:39:35.049Z,13.90
2018-09-17T06:42:03.266Z,13.90
2018-09-17T06:44:31.516Z,14.00
2018-09-17T06:46:59.732Z,14.00
2018-09-17T06:49:27.930Z,14.30
2018-09-17T06:51:56.171Z,14.30
2018-09-17T06:54:24.395Z,14.30
2018-09-17T06:56:52.621Z,14.30
2018-09-17T06:59:20.823Z,14.40
2018-09-17T07:01:49.052Z,14.40
2018-09-17T07:04:17.255Z,14.50
2018-09-17T07:06:45.494Z,14.60
2018-09-17T07:09:13.699Z,14.60
2018-09-17T07:11:41.925Z,14.70
2018-09-17T07:14:10.406Z,14.70
2018-09-17T07:16:38.728Z,14.80
2018-09-17T07:19:06.944Z,14.90
2018-09-17T07:21:35.157Z,15.00
2018-09-17T07:24:03.363Z,15.00
2018-09-17T07:26:31.625Z,15.10
2018-09-17T07:29:00.423Z,15.10
2018-09-17T07:31:28.634Z,15.20
2018-09-17T07:33:56.854Z,15.20
2018-09-17T07:36:25.105Z,15.30
2018-09-17T07:38:53.270Z,15.40
2018-09-17T07:41:21.459Z,15.60
2018-09-17T07:43:49.655Z,15.60
2018-09-17T07:46:17.841Z,15.70
2018-09-17T07:48:46.061Z,15.70
2018-09-17T07:51:14.350Z,15.80
2018-09-17T07:53:42.539Z,15.80
2018-09-17T07:56:10.779Z,15.80
2018-09-17T07:58:38.978Z,16.00
2018-09-17T08:01:07.182Z,16.00
2018-09-17T08:03:35.360Z,16.10
2018-09-17T08:06:03.557Z,16.20
2018-09-17T08:08:32.212Z,16.30
2018-09-17T08:11:00.383Z,16.30
2018-09-17T08:13:28.587Z,16.50
2018-09-17T08:15:56.768Z,16.50
2018-09-17T08:18:25.001Z,16.50
2018-09-17T08:20:53.198Z,16.60
2018-09-17T08:23:21.393Z,16.70
2018-09-17T08:25:49.605Z,16.80
2018-09-17T08:28:17.834Z,16.80
2018-09-17T08:30:46.010Z,16.90
2018-09-17T08:33:14.204Z,17.00
2018-09-17T08:35:42.402Z,17.10
2018-09-17T08:38:10.691Z,17.20
2018-09-17T08:40:38.803Z,17.20
2018-09-17T08:43:07.116Z,17.30
2018-09-17T08:45:35.342Z,17.30
2018-09-17T08:48:03.478Z,17.40
2018-09-17T08:50:31.672Z,17.50
2018-09-17T08:52:59.958Z,17.50
2018-09-17T08:55:33.502Z,17.60
2018-09-17T08:58:07.193Z,17.70
2018-09-17T09:02:47.816Z,17.80
2018-09-17T09:05:21.398Z,17.80
2018-09-17T09:07:52.072Z,17.90
2018-09-17T09:10:26.242Z,18.10
2018-09-17T09:14:00.315Z,18.20
2018-09-17T09:16:28.574Z,18.30
2018-09-17T09:18:56.781Z,18.50
2018-09-17T09:21:24.967Z,18.60
2018-09-17T09:23:53.189Z,18.60
2018-09-17T09:26:21.370Z,18.70
2018-09-17T09:28:49.576Z,18.70
2018-09-17T09:31:17.770Z,18.80
2018-09-17T09:33:46.008Z,18.80
2018-09-17T09:36:14.217Z,18.90
2018-09-17T09:38:42.418Z,19.00
2018-09-17T09:41:10.617Z,19.10
2018-09-17T09:43:38.839Z,19.30
2018-09-17T09:46:07.030Z,19.50
2018-09-17T09:48:35.241Z,19.60
2018-09-17T09:51:03.429Z,19.70
2018-09-17T09:53:31.649Z,19.70
2018-09-17T09:55:59.857Z,19.80
2018-09-17T09:58:28.099Z,19.80
2018-09-17T10:01:01.790Z,19.90
2018-09-17T10:03:34.233Z,20.50
2018-09-17T10:06:02.847Z,20.40
2018-09-17T10:08:31.057Z,20.30
2018-09-17T10:11:04.727Z,21.00
2018-09-17T10:13:38.483Z,21.30
2018-09-17T10:16:12.189Z,21.30
2018-09-17T10:18:45.879Z,21.10
2018-09-17T10:21:14.049Z,21.10
2018-09-17T10:23:42.246Z,21.10
2018-09-17T10:26:10.385Z,21.40
2018-09-17T10:28:38.567Z,21.40
2018-09-17T10:31:06.763Z,21.50
2018-09-17T10:33:34.956Z,21.40
2018-09-17T10:36:03.148Z,21.40
2018-09-17T10:38:31.326Z,21.50
2018-09-17T10:40:59.506Z,21.70
2018-09-17T10:43:27.688Z,22.00
2018-09-17T10:45:55.880Z,22.20
2018-09-17T10:48:24.060Z,22.20
2018-09-17T10:50:52.272Z,22.40
2018-09-17T10:53:20.450Z,22.40
2018-09-17T10:55:48.655Z,22.30
2018-09-17T10:58:16.850Z,22.50
2018-09-17T11:00:45.335Z,22.50
2018-09-17T11:03:13.512Z,22.50
2018-09-17T11:05:41.699Z,22.60
2018-09-17T11:08:09.947Z,22.80
2018-09-17T11:10:38.094Z,23.50
2018-09-17T11:13:06.260Z,23.70
2018-09-17T11:15:39.739Z,23.60
2018-09-17T11:18:07.948Z,23.60
2018-09-17T11:20:36.121Z,23.80
2018-09-17T11:23:04.339Z,23.90
2018-09-17T11:25:32.643Z,24.00
2018-09-17T11:28:00.830Z,24.10
2018-09-17T11:30:29.011Z,24.20
2018-09-17T11:32:57.196Z,24.20
2018-09-17T11:35:25.405Z,24.30
2018-09-17T11:37:53.588Z,24.50
2018-09-17T11:40:22.027Z,24.70
2018-09-17T11:42:50.219Z,24.70
2018-09-17T11:45:18.556Z,24.70
2018-09-17T11:47:46.750Z,24.70
2018-09-17T11:50:14.957Z,24.80
2018-09-17T11:52:43.159Z,24.90
2018-09-17T11:55:11.471Z,24.90
2018-09-17T11:57:39.678Z,24.90
2018-09-17T12:00:07.880Z,24.80
2018-09-17T12:02:36.830Z,24.50
2018-09-17T12:05:07.049Z,24.90
2018-09-17T12:07:42.421Z,25.20
2018-09-17T12:10:11.275Z,25.10
2018-09-17T12:12:39.873Z,25.30
2018-09-17T12:15:08.774Z,25.50
2018-09-17T12:17:37.078Z,25.90
2018-09-17T12:20:05.360Z,26.10
2018-09-17T12:22:33.563Z,26.30
2018-09-17T12:25:01.770Z,26.50
2018-09-17T12:27:29.979Z,26.20
2018-09-17T12:29:58.167Z,26.00
2018-09-17T12:32:26.370Z,25.80
2018-09-17T12:34:54.550Z,25.50
2018-09-17T12:37:22.742Z,25.30
2018-09-17T12:39:50.957Z,25.80
2018-09-17T12:42:19.168Z,25.80
2018-09-17T12:44:47.362Z,25.50
2018-09-17T12:47:15.555Z,25.70
2018-09-17T12:49:43.778Z,26.00
2018-09-17T12:52:12.008Z,26.10
2018-09-17T12:54:40.230Z,26.30
2018-09-17T12:57:08.479Z,26.60
2018-09-17T12:59:36.653Z,26.90
2018-09-17T13:02:04.864Z,26.60
2018-09-17T13:04:33.059Z,26.90
2018-09-17T13:07:01.283Z,27.00
2018-09-17T13:09:29.467Z,27.10
2018-09-17T13:11:57.672Z,26.70
2018-09-17T13:14:25.877Z,26.30
2018-09-17T13:16:54.075Z,26.40
2018-09-17T13:19:22.263Z,26.80
2018-09-17T13:21:50.476Z,27.30
2018-09-17T13:24:18.684Z,27.70
2018-09-17T13:26:46.920Z,28.00
2018-09-17T13:29:15.099Z,28.10
2018-09-17T13:31:43.412Z,27.90
2018-09-17T13:34:11.574Z,27.60
2018-09-17T13:36:39.763Z,27.60
2018-09-17T13:39:07.991Z,27.90
2018-09-17T13:41:36.212Z,28.40
2018-09-17T13:44:04.498Z,28.70
2018-09-17T13:46:32.631Z,28.80
2018-09-17T13:49:00.858Z,29.10
2018-09-17T13:51:29.038Z,29.00
2018-09-17T13:53:57.242Z,28.40
2018-09-17T13:56:25.426Z,28.50
2018-09-17T13:58:53.639Z,28.40
2018-09-17T14:01:21.854Z,28.50
2018-09-17T14:03:50.278Z,28.50
2018-09-17T14:06:18.480Z,28.60
2018-09-17T14:08:46.692Z,29.00
2018-09-17T14:11:14.888Z,29.10
2018-09-17T14:13:43.110Z,29.40
2018-09-17T14:16:11.290Z,29.60
2018-09-17T14:18:39.772Z,29.70
2018-09-17T14:21:08.454Z,29.80
2018-09-17T14:23:36.734Z,28.90
2018-09-17T14:26:04.974Z,29.30
2018-09-17T14:28:33.136Z,29.80
2018-09-17T14:31:01.324Z,29.70
2018-09-17T14:33:34.725Z,29.40
2018-09-17T14:36:02.930Z,29.50
2018-09-17T14:38:31.141Z,28.90
2018-09-17T14:40:59.367Z,29.10
2018-09-17T14:43:27.583Z,28.60
2018-09-17T14:45:55.953Z,29.10
2018-09-17T14:48:24.287Z,28.40
2018-09-17T14:50:52.828Z,28.90
2018-09-17T14:53:21.132Z,28.90
2018-09-17T14:55:49.225Z,28.80
2018-09-17T14:58:17.520Z,28.70
2018-09-17T15:00:45.609Z,28.60
2018-09-17T15:03:13.820Z,28.30
2018-09-17T15:05:42.018Z,28.50
2018-09-17T15:08:10.384Z,28.50
2018-09-17T15:10:38.531Z,29.30
2018-09-17T15:13:06.698Z,29.90
2018-09-17T15:15:39.134Z,30.10
2018-09-17T15:18:07.311Z,30.10
2018-09-17T15:20:35.529Z,29.50
2018-09-17T15:23:03.711Z,29.00
2018-09-17T15:25:31.922Z,28.80
2018-09-17T15:28:00.134Z,29.10
2018-09-17T15:30:28.343Z,30.20
2018-09-17T15:32:56.533Z,29.90
2018-09-17T15:35:24.754Z,29.40
2018-09-17T15:37:52.947Z,29.40
2018-09-17T15:40:21.183Z,29.30
2018-09-17T15:42:49.354Z,29.20
2018-09-17T15:45:17.559Z,28.90
2018-09-17T15:47:45.747Z,28.70
2018-09-17T15:50:13.982Z,28.40
2018-09-17T15:52:42.119Z,28.60
2018-09-17T15:55:10.410Z,28.40
2018-09-17T15:57:38.591Z,28.50
2018-09-17T16:00:07.131Z,28.30
2018-09-17T16:02:35.486Z,28.30
2018-09-17T16:05:03.652Z,28.20
2018-09-17T16:07:31.822Z,28.30
2018-09-17T16:10:00.044Z,28.10
2018-09-17T16:12:28.255Z,28.00
2018-09-17T16:14:56.460Z,27.90
2018-09-17T16:17:25.471Z,27.90
2018-09-17T16:19:53.701Z,27.90
2018-09-17T16:22:21.840Z,27.90
2018-09-17T16:24:50.051Z,27.90
2018-09-17T16:27:18.332Z,27.60
2018-09-17T16:29:46.536Z,27.60
2018-09-17T16:32:14.696Z,27.40
2018-09-17T16:34:43.328Z,27.40
2018-09-17T16:37:11.737Z,27.30
2018-09-17T16:39:40.065Z,27.20
2018-09-17T16:42:08.266Z,27.40
2018-09-17T16:44:36.467Z,27.10
2018-09-17T16:47:04.763Z,26.90
2018-09-17T16:49:32.921Z,26.80
2018-09-17T16:52:01.226Z,26.70
2018-09-17T16:54:29.526Z,26.60
2018-09-17T16:56:57.803Z,26.80
2018-09-17T16:59:26.008Z,26.60
2018-09-17T17:01:54.216Z,26.40
2018-09-17T17:04:22.415Z,26.30
2018-09-17T17:06:50.632Z,26.10
2018-09-17T17:09:18.941Z,25.90
2018-09-17T17:11:47.157Z,25.80
2018-09-17T17:14:15.359Z,25.70
2018-09-17T17:16:43.623Z,25.60
2018-09-17T17:19:11.852Z,25.50
2018-09-17T17:21:40.122Z,25.50
2018-09-17T17:24:08.357Z,25.50
2018-09-17T17:26:36.574Z,25.30
2018-09-17T17:29:04.763Z,25.10
2018-09-17T17:31:33.065Z,25.00
2018-09-17T17:34:01.355Z,24.90
2018-09-17T17:36:29.530Z,24.80
2018-09-17T17:38:57.733Z,24.80
2018-09-17T17:41:25.940Z,24.60
2018-09-17T17:43:54.195Z,24.70
2018-09-17T17:46:22.422Z,24.60
2018-09-17T17:48:50.731Z,24.60
2018-09-17T17:51:19.002Z,24.50
2018-09-17T17:53:47.291Z,24.30
2018-09-17T17:56:15.622Z,24.20
2018-09-17T17:58:43.902Z,24.20
2018-09-17T18:01:12.303Z,24.10
2018-09-17T18:03:40.521Z,23.80
2018-09-17T18:06:08.732Z,23.60
2018-09-17T18:08:37.005Z,23.40
2018-09-17T18:11:05.339Z,23.30
2018-09-17T18:13:33.753Z,23.20
2018-09-17T18:16:02.056Z,23.10
2018-09-17T18:18:30.310Z,23.00
2018-09-17T18:20:58.558Z,23.00
2018-09-17T18:23:26.785Z,22.80
2018-09-17T18:25:55.072Z,22.70
2018-09-17T18:28:23.337Z,22.50
2018-09-17T18:30:51.582Z,22.40
2018-09-17T18:33:19.909Z,22.30
2018-09-17T18:35:48.573Z,22.30
2018-09-17T18:38:16.849Z,22.30
2018-09-17T18:40:45.452Z,22.30
2018-09-17T18:43:13.748Z,22.40
2018-09-17T18:45:43.408Z,22.40
2018-09-17T18:48:11.739Z,22.30
2018-09-17T18:50:42.049Z,22.10
2018-09-17T18:53:10.352Z,21.90
2018-09-17T18:55:41.275Z,21.90
2018-09-17T18:58:09.570Z,21.90
2018-09-17T19:00:42.680Z,21.90
2018-09-17T19:03:10.973Z,21.90
2018-09-17T19:05:39.378Z,21.80
2018-09-17T19:08:09.675Z,21.70
2018-09-17T19:10:38.110Z,21.70
2018-09-17T19:13:06.467Z,21.50
2018-09-17T19:15:40.241Z,21.50
2018-09-17T19:18:18.125Z,21.40
2018-09-17T19:20:47.416Z,21.30
2018-09-17T19:23:20.963Z,21.20
2018-09-17T19:25:50.388Z,21.10
2018-09-17T19:28:23.980Z,21.00
2018-09-17T19:30:52.198Z,20.90
2018-09-17T19:33:20.431Z,20.90
2018-09-17T19:35:48.691Z,20.80
2018-09-17T19:38:22.557Z,20.70
2018-09-17T19:40:50.755Z,20.70
2018-09-17T19:43:19.005Z,20.50
2018-09-17T19:45:52.603Z,20.40
2018-09-17T19:48:20.920Z,20.20
2018-09-17T19:50:54.608Z,20.10
2018-09-17T19:53:22.832Z,20.00
2018-09-17T19:55:51.117Z,20.00
2018-09-17T19:58:24.826Z,19.90
2018-09-17T20:00:53.184Z,19.80
2018-09-17T20:03:21.381Z,19.70
2018-09-17T20:05:54.964Z,19.80
2018-09-17T20:08:23.237Z,19.80
2018-09-17T20:10:51.462Z,19.70
2018-09-17T20:13:19.723Z,19.70
2018-09-17T20:15:48.026Z,19.70
2018-09-17T20:18:16.315Z,19.80
2018-09-17T20:20:44.568Z,19.80
2018-09-17T20:23:12.889Z,19.70
2018-09-17T20:25:41.170Z,19.80
2018-09-17T20:28:09.436Z,19.80
2018-09-17T20:30:37.700Z,19.90
2018-09-17T20:33:05.971Z,19.90
2018-09-17T20:35:34.252Z,19.60
2018-09-17T20:38:02.508Z,19.50
2018-09-17T20:40:30.809Z,19.70
2018-09-17T20:42:59.036Z,19.70
2018-09-17T20:45:27.278Z,19.70
2018-09-17T20:47:55.557Z,19.70
2018-09-17T20:50:23.884Z,19.40
2018-09-17T20:52:52.087Z,19.30
2018-09-17T20:55:20.426Z,19.10
2018-09-17T20:57:48.603Z,19.00
2018-09-17T21:00:16.827Z,18.90
2018-09-17T21:02:45.034Z,18.90
2018-09-17T21:05:13.281Z,19.00
2018-09-17T21:07:41.546Z,19.10
2018-09-17T21:10:09.809Z,19.10
2018-09-17T21:12:38.207Z,19.10
2018-09-17T21:15:06.520Z,19.10
2018-09-17T21:17:34.783Z,19.10
2018-09-17T21:20:03.019Z,19.10
2018-09-17T21:22:31.283Z,18.50
2018-09-17T21:24:59.554Z,18.30
2018-09-17T21:27:27.761Z,18.30
2018-09-17T21:29:56.368Z,18.30
2018-09-17T21:32:24.605Z,18.50
2018-09-17T21:34:52.927Z,18.70
2018-09-17T21:37:21.245Z,18.40
2018-09-17T21:39:49.397Z,18.40
2018-09-17T21:42:17.649Z,18.40
2018-09-17T21:44:45.905Z,18.10
2018-09-17T21:47:14.144Z,18.20
2018-09-17T21:49:42.461Z,18.20
2018-09-17T21:52:10.686Z,18.00
2018-09-17T21:54:45.469Z,17.90
2018-09-17T21:57:13.736Z,18.00
2018-09-17T21:59:41.960Z,18.20
2018-09-17T22:02:10.186Z,18.30
2018-09-17T22:04:38.419Z,18.20
2018-09-17T22:07:06.695Z,18.30
2018-09-17T22:09:34.904Z,18.30
2018-09-17T22:12:03.140Z,18.20
2018-09-17T22:14:31.362Z,18.30
2018-09-17T22:16:59.579Z,18.40
2018-09-17T22:19:27.800Z,18.50
2018-09-17T22:21:56.001Z,18.40
2018-09-17T22:24:24.222Z,18.40
2018-09-17T22:26:52.483Z,18.40
2018-09-17T22:29:20.707Z,18.40
2018-09-17T22:31:48.974Z,18.30
2018-09-17T22:34:17.216Z,18.30
2018-09-17T22:36:45.435Z,18.30
2018-09-17T22:39:13.687Z,18.20
2018-09-17T22:41:41.935Z,18.20
2018-09-17T22:44:10.170Z,18.20
2018-09-17T22:46:38.440Z,18.20
2018-09-17T22:49:07.301Z,18.20
2018-09-17T22:51:35.541Z,18.20
2018-09-17T22:54:03.805Z,18.10
2018-09-17T22:56:32.041Z,18.10
2018-09-17T22:59:00.284Z,18.00
2018-09-17T23:01:28.529Z,18.00
2018-09-17T23:03:56.769Z,17.90
2018-09-17T23:06:25.015Z,17.90
2018-09-17T23:08:53.276Z,17.90
2018-09-17T23:11:21.501Z,17.90
2018-09-17T23:13:49.759Z,17.80
2018-09-17T23:16:18.029Z,17.90
2018-09-17T23:18:46.268Z,17.80
2018-09-17T23:21:14.500Z,17.80
2018-09-17T23:23:42.757Z,17.80
2018-09-17T23:26:11.004Z,17.80
2018-09-17T23:28:39.306Z,17.70
2018-09-17T23:31:07.507Z,17.70
2018-09-17T23:33:35.742Z,17.60
2018-09-17T23:36:06.986Z,17.60
2018-09-17T23:38:35.297Z,17.60
2018-09-17T23:41:03.494Z,17.40
2018-09-17T23:43:31.740Z,17.40
2018-09-17T23:45:59.920Z,17.50
2018-09-17T23:48:28.149Z,17.40
2018-09-17T23:50:56.398Z,17.30
2018-09-17T23:53:24.657Z,17.40
2018-09-17T23:55:52.865Z,17.40
2018-09-17T23:58:21.071Z,17.30
